createdAt,value
2023-04-08T00:00:40.345Z,12.17
2023-04-08T00:03:08.142Z,12.57
2023-04-08T00:05:35.683Z,11.33
2023-04-08T00:08:03.149Z,12.47
2023-04-08T00:10:30.568Z,12.90
2023-04-08T00:12:58.056Z,12.87
2023-04-08T00:15:25.650Z,14.10
2023-04-08T00:17:54.770Z,14.13
2023-04-08T00:20:24.013Z,13.03
2023-04-08T00:22:51.620Z,14.63
2023-04-08T00:25:19.148Z,14.13
2023-04-08T00:27:46.634Z,14.47
2023-04-08T00:30:15.651Z,15.93
2023-04-08T00:32:44.004Z,14.40
2023-04-08T00:35:13.072Z,13.30
2023-04-08T00:37:41.551Z,14.53
2023-04-08T00:40:09.589Z,14.50
2023-04-08T00:42:37.216Z,12.33
2023-04-08T00:45:05.411Z,13.33
2023-04-08T00:47:32.920Z,13.87
2023-04-08T00:50:00.547Z,13.03
2023-04-08T00:52:28.095Z,13.47
2023-04-08T00:54:56.319Z,13.00
2023-04-08T00:57:23.791Z,13.53
2023-04-08T00:59:52.155Z,13.30
2023-04-08T01:02:35.520Z,12.90
2023-04-08T01:05:11.329Z,12.57
2023-04-08T01:07:45.353Z,12.30
2023-04-08T01:10:24.052Z,12.67
2023-04-08T01:13:04.776Z,12.83
2023-04-08T01:15:35.875Z,12.07
2023-04-08T01:18:07.437Z,10.80
2023-04-08T01:20:35.746Z,12.45
2023-04-08T01:23:40.841Z,11.60
2023-04-08T01:26:10.127Z,11.00
2023-04-08T01:28:39.345Z,11.13
2023-04-08T01:31:08.226Z,10.90
2023-04-08T01:33:37.415Z,10.73
2023-04-08T01:36:06.326Z,10.77
2023-04-08T01:38:39.023Z,9.80
2023-04-08T01:41:10.099Z,10.03
2023-04-08T01:43:40.326Z,10.47
2023-04-08T01:46:10.706Z,10.00
2023-04-08T01:48:38.716Z,9.60
2023-04-08T01:51:06.930Z,10.43
2023-04-08T01:53:36.949Z,9.50
2023-04-08T01:56:13.013Z,9.23
2023-04-08T01:58:46.402Z,9.40
2023-04-08T02:01:17.559Z,8.20
2023-04-08T02:03:46.952Z,9.00
2023-04-08T02:06:14.800Z,8.80
2023-04-08T02:08:42.375Z,8.40
2023-04-08T02:11:10.577Z,8.00
2023-04-08T02:13:38.133Z,8.50
2023-04-08T02:16:17.089Z,7.53
2023-04-08T02:18:51.277Z,7.87
2023-04-08T02:21:22.736Z,6.80
2023-04-08T02:23:51.406Z,6.82
2023-04-08T02:26:21.041Z,7.23
2023-04-08T02:28:50.910Z,6.63
2023-04-08T02:31:19.514Z,7.00
2023-04-08T02:33:48.127Z,7.07
2023-04-08T02:36:16.405Z,6.70
2023-04-08T02:38:49.404Z,6.93
2023-04-08T02:41:17.819Z,6.70
2023-04-08T02:43:45.639Z,6.17
2023-04-08T02:46:13.512Z,5.97
2023-04-08T02:48:41.052Z,5.75
2023-04-08T02:51:08.579Z,5.75
2023-04-08T02:53:36.105Z,6.25
2023-04-08T02:56:03.800Z,5.60
2023-04-08T02:58:31.261Z,6.00
2023-04-08T03:00:58.779Z,5.47
2023-04-08T03:03:30.414Z,6.40
2023-04-08T03:05:58.502Z,6.47
2023-04-08T03:08:26.507Z,6.33
2023-04-08T03:10:53.959Z,6.30
2023-04-08T03:13:21.354Z,5.35
2023-04-08T03:15:48.830Z,6.60
2023-04-08T03:18:16.399Z,5.97
2023-04-08T03:20:43.921Z,5.85
2023-04-08T03:23:11.328Z,4.78
2023-04-08T03:25:38.817Z,5.05
2023-04-08T03:28:06.375Z,4.75
2023-04-08T03:30:34.066Z,4.95
2023-04-08T03:33:04.735Z,4.18
2023-04-08T03:35:33.525Z,5.00
2023-04-08T03:38:01.113Z,5.43
2023-04-08T03:40:28.530Z,4.05
2023-04-08T03:42:55.951Z,4.25
2023-04-08T03:45:23.660Z,4.38
2023-04-08T03:47:51.203Z,5.05
2023-04-08T03:50:18.798Z,3.97
2023-04-08T03:52:46.565Z,4.43
2023-04-08T03:55:14.068Z,4.03
2023-04-08T03:57:41.692Z,4.05
2023-04-08T04:00:10.129Z,3.95
2023-04-08T04:02:40.793Z,3.22
2023-04-08T04:05:08.835Z,3.30
2023-04-08T04:07:36.269Z,4.50
2023-04-08T04:10:04.020Z,3.50
2023-04-08T04:12:31.495Z,3.70
2023-04-08T04:14:59.091Z,3.63
2023-04-08T04:17:27.196Z,3.13
2023-04-08T04:19:54.590Z,4.18
2023-04-08T04:22:22.083Z,4.13
2023-04-08T04:24:50.076Z,3.87
2023-04-08T04:27:18.439Z,4.67
2023-04-08T04:29:45.960Z,4.77
2023-04-08T04:32:13.501Z,4.73
2023-04-08T04:34:41.093Z,5.87
2023-04-08T04:37:08.538Z,5.57
2023-04-08T04:39:36.414Z,5.83
2023-04-08T04:42:04.714Z,5.43
2023-04-08T04:44:32.179Z,5.43
2023-04-08T04:46:59.652Z,5.90
2023-04-08T04:49:27.158Z,4.87
2023-04-08T04:51:54.747Z,5.37
2023-04-08T04:54:22.210Z,5.43
2023-04-08T04:56:49.628Z,5.57
2023-04-08T04:59:16.972Z,5.40
2023-04-08T05:01:44.327Z,5.57
2023-04-08T05:04:11.807Z,5.60
2023-04-08T05:06:39.293Z,5.20
2023-04-08T05:09:06.654Z,6.03
2023-04-08T05:11:34.204Z,6.73
2023-04-08T05:14:01.633Z,6.33
2023-04-08T05:16:29.167Z,5.50
2023-04-08T05:18:56.628Z,5.67
2023-04-08T05:21:24.218Z,5.63
2023-04-08T05:23:53.146Z,5.60
2023-04-08T05:26:21.899Z,6.43
2023-04-08T05:28:50.043Z,5.37
2023-04-08T05:31:18.776Z,5.30
2023-04-08T05:33:46.494Z,5.30
2023-04-08T05:36:14.364Z,6.00
2023-04-08T05:38:44.327Z,5.97
2023-04-08T05:41:11.760Z,6.73
2023-04-08T05:43:39.173Z,6.25
2023-04-08T05:46:08.268Z,7.03
2023-04-08T05:48:35.934Z,7.23
2023-04-08T05:51:03.681Z,7.90
2023-04-08T05:53:31.513Z,10.98
2023-04-08T05:55:58.959Z,7.33
2023-04-08T05:58:26.423Z,8.13
2023-04-08T06:00:55.638Z,7.20
2023-04-08T06:03:23.378Z,9.52
2023-04-08T06:05:50.901Z,7.68
2023-04-08T06:08:18.292Z,7.80
2023-04-08T06:10:52.374Z,8.03
2023-04-08T06:13:22.112Z,7.88
2023-04-08T06:15:49.981Z,7.30
2023-04-08T06:18:17.743Z,7.32
2023-04-08T06:20:46.097Z,8.35
2023-04-08T06:23:13.905Z,8.98
2023-04-08T06:25:42.056Z,9.45
2023-04-08T06:28:09.638Z,8.75
2023-04-08T06:30:37.118Z,10.60
2023-04-08T06:33:04.716Z,12.32
2023-04-08T06:35:32.734Z,12.70
2023-04-08T06:38:00.323Z,12.43
2023-04-08T06:40:27.795Z,13.52
2023-04-08T06:42:55.764Z,13.60
2023-04-08T06:45:35.563Z,15.75
2023-04-08T06:48:03.355Z,14.57
2023-04-08T06:50:30.804Z,15.57
2023-04-08T06:52:58.358Z,13.63
2023-04-08T06:55:25.924Z,14.75
2023-04-08T06:57:53.645Z,16.45
2023-04-08T07:00:21.263Z,15.82
2023-04-08T07:02:48.881Z,15.68
2023-04-08T07:05:16.682Z,15.82
2023-04-08T07:07:44.210Z,16.95
2023-04-08T07:10:12.686Z,15.32
2023-04-08T07:12:40.611Z,15.68
2023-04-08T07:15:08.992Z,15.60
2023-04-08T07:17:37.067Z,16.77
2023-04-08T07:20:05.728Z,14.27
2023-04-08T07:22:33.254Z,15.15
2023-04-08T07:25:00.648Z,15.43
2023-04-08T07:27:28.091Z,14.90
2023-04-08T07:29:56.056Z,16.08
2023-04-08T07:32:23.809Z,14.80
2023-04-08T07:34:51.308Z,13.98
2023-04-08T07:37:18.845Z,15.60
2023-04-08T07:39:46.420Z,12.68
2023-04-08T07:42:13.911Z,11.95
2023-04-08T07:44:41.368Z,12.60
2023-04-08T07:47:09.735Z,12.05
2023-04-08T07:49:37.749Z,10.50
2023-04-08T07:52:08.621Z,10.52
2023-04-08T07:54:36.107Z,9.77
2023-04-08T07:57:03.556Z,7.72
2023-04-08T07:59:32.420Z,7.65
2023-04-08T08:01:59.876Z,6.03
2023-04-08T08:04:27.511Z,5.47
2023-04-08T08:06:55.194Z,5.68
2023-04-08T08:09:22.676Z,5.43
2023-04-08T08:11:50.059Z,51.03
2023-04-08T08:14:17.593Z,68.07
2023-04-08T08:16:45.069Z,19.65
2023-04-08T08:19:14.016Z,6.80
2023-04-08T08:21:41.829Z,4.63
2023-04-08T08:24:09.377Z,4.72
2023-04-08T08:26:37.235Z,5.03
2023-04-08T08:29:06.518Z,3.95
2023-04-08T08:31:34.352Z,4.88
2023-04-08T08:34:01.827Z,4.25
2023-04-08T08:36:29.406Z,3.97
2023-04-08T08:38:56.803Z,3.95
2023-04-08T08:41:24.239Z,4.18
2023-04-08T08:43:52.901Z,5.10
2023-04-08T08:46:20.400Z,4.43
2023-04-08T08:48:47.999Z,4.10
2023-04-08T08:51:15.518Z,4.82
2023-04-08T08:53:45.779Z,4.97
2023-04-08T08:56:18.374Z,5.88
2023-04-08T08:58:47.817Z,4.68
2023-04-08T09:01:49.729Z,4.72
2023-04-08T09:04:20.363Z,4.10
2023-04-08T09:07:08.597Z,5.13
2023-04-08T09:09:49.894Z,10.88
2023-04-08T09:12:18.203Z,5.22
2023-04-08T09:14:46.548Z,5.80
2023-04-08T09:17:14.161Z,5.00
2023-04-08T09:20:19.717Z,5.38
2023-04-08T09:23:01.899Z,5.65
2023-04-08T09:25:32.166Z,5.80
2023-04-08T09:28:00.469Z,5.88
2023-04-08T09:30:28.667Z,6.43
2023-04-08T09:32:59.235Z,5.97
2023-04-08T09:35:26.960Z,6.68
2023-04-08T09:37:54.518Z,6.57
2023-04-08T09:40:24.876Z,6.63
2023-04-08T09:42:54.404Z,6.38
2023-04-08T09:45:22.239Z,5.93
2023-04-08T09:48:01.624Z,6.82
2023-04-08T09:50:32.895Z,6.53
2023-04-08T09:53:26.395Z,7.50
2023-04-08T09:55:57.172Z,7.03
2023-04-08T09:58:29.611Z,7.43
2023-04-08T10:00:57.827Z,6.18
2023-04-08T10:03:37.629Z,7.60
2023-04-08T10:06:08.332Z,7.65
2023-04-08T10:08:36.020Z,7.90
2023-04-08T10:11:03.670Z,9.25
2023-04-08T10:13:32.717Z,10.32
2023-04-08T10:16:24.740Z,8.18
2023-04-08T10:18:58.279Z,7.05
2023-04-08T10:21:35.551Z,8.30
2023-04-08T10:24:09.152Z,7.13
2023-04-08T10:26:41.591Z,6.60
2023-04-08T10:29:38.392Z,6.28
2023-04-08T10:32:06.052Z,7.00
2023-04-08T10:34:33.731Z,6.32
2023-04-08T10:37:02.333Z,7.70
2023-04-08T10:39:30.867Z,7.15
2023-04-08T10:41:58.324Z,9.00
2023-04-08T10:44:28.751Z,8.55
2023-04-08T10:46:56.538Z,7.78
2023-04-08T10:49:33.866Z,7.88
2023-04-08T10:52:01.657Z,8.10
2023-04-08T10:54:29.187Z,9.38
2023-04-08T10:56:56.801Z,7.40
2023-04-08T10:59:32.254Z,8.05
2023-04-08T11:02:01.524Z,7.70
2023-04-08T11:04:29.397Z,7.80
2023-04-08T11:06:58.347Z,8.57
2023-04-08T11:09:25.743Z,7.55
2023-04-08T11:11:53.984Z,8.25
2023-04-08T11:14:22.588Z,8.40
2023-04-08T11:16:50.127Z,7.85
2023-04-08T11:19:18.255Z,8.30
2023-04-08T11:21:46.727Z,8.02
2023-04-08T11:24:14.615Z,8.43
2023-04-08T11:26:42.823Z,7.90
2023-04-08T11:29:14.217Z,9.07
2023-04-08T11:31:44.115Z,13.02
2023-04-08T11:34:12.254Z,8.35
2023-04-08T11:36:42.680Z,8.85
2023-04-08T11:39:12.230Z,8.93
2023-04-08T11:41:43.009Z,9.38
2023-04-08T11:44:10.711Z,10.55
2023-04-08T11:46:38.203Z,9.38
2023-04-08T11:49:08.350Z,9.40
2023-04-08T11:51:54.320Z,9.73
2023-04-08T11:54:32.432Z,53.47
2023-04-08T11:57:00.225Z,19.40
2023-04-08T11:59:29.630Z,10.18
2023-04-08T12:01:57.912Z,10.27
2023-04-08T12:04:25.920Z,10.48
2023-04-08T12:06:53.503Z,11.05
2023-04-08T12:09:20.987Z,10.95
2023-04-08T12:11:48.487Z,11.73
2023-04-08T12:14:16.096Z,11.18
2023-04-08T12:16:43.529Z,11.90
2023-04-08T12:19:11.052Z,11.63
2023-04-08T12:21:38.665Z,12.10
2023-04-08T12:24:06.578Z,11.73
2023-04-08T12:26:34.041Z,12.52
2023-04-08T12:29:01.844Z,12.90
2023-04-08T12:31:29.395Z,13.98
2023-04-08T12:33:56.962Z,12.30
2023-04-08T12:36:24.500Z,13.80
2023-04-08T12:38:52.325Z,12.60
2023-04-08T12:41:20.021Z,12.15
2023-04-08T12:43:47.472Z,14.43
2023-04-08T12:46:14.907Z,16.48
2023-04-08T12:48:45.110Z,15.30
2023-04-08T12:51:12.835Z,15.05
2023-04-08T12:53:40.292Z,14.63
2023-04-08T12:56:07.716Z,15.63
2023-04-08T12:58:35.232Z,15.50
2023-04-08T13:01:02.824Z,15.55
2023-04-08T13:03:32.091Z,15.93
2023-04-08T13:05:59.638Z,18.02
2023-04-08T13:08:27.106Z,16.20
2023-04-08T13:10:55.254Z,14.55
2023-04-08T13:13:22.894Z,15.25
2023-04-08T13:15:51.020Z,15.30
2023-04-08T13:18:18.430Z,15.35
2023-04-08T13:20:46.082Z,14.70
2023-04-08T13:23:15.379Z,14.43
2023-04-08T13:25:48.361Z,15.95
2023-04-08T13:28:16.062Z,15.93
2023-04-08T13:30:43.661Z,15.30
2023-04-08T13:33:11.282Z,15.05
2023-04-08T13:35:38.948Z,14.82
2023-04-08T13:38:06.437Z,14.35
2023-04-08T13:40:33.857Z,14.20
2023-04-08T13:43:01.780Z,13.85
2023-04-08T13:45:29.310Z,14.32
2023-04-08T13:47:56.944Z,15.10
2023-04-08T13:50:24.638Z,15.00
2023-04-08T13:52:51.990Z,13.70
2023-04-08T13:55:19.404Z,13.30
2023-04-08T13:57:46.893Z,11.77
2023-04-08T14:00:14.585Z,11.23
2023-04-08T14:02:42.590Z,13.07
2023-04-08T14:05:10.208Z,12.20
2023-04-08T14:07:37.626Z,11.30
2023-04-08T14:10:05.869Z,11.80
2023-04-08T14:12:33.532Z,10.85
2023-04-08T14:15:02.802Z,10.00
2023-04-08T14:17:30.368Z,9.90
2023-04-08T14:19:59.662Z,9.32
2023-04-08T14:22:27.140Z,9.90
2023-04-08T14:24:54.582Z,9.68
2023-04-08T14:27:21.892Z,8.98
2023-04-08T14:29:49.274Z,8.68
2023-04-08T14:32:16.835Z,8.95
2023-04-08T14:34:44.845Z,9.48
2023-04-08T14:37:12.332Z,9.20
2023-04-08T14:39:39.826Z,8.95
2023-04-08T14:42:07.265Z,8.73
2023-04-08T14:44:34.673Z,8.10
2023-04-08T14:47:02.209Z,8.77
2023-04-08T14:49:29.657Z,8.82
2023-04-08T14:51:57.138Z,9.65
2023-04-08T14:54:24.590Z,9.15
2023-04-08T14:56:52.083Z,9.32
2023-04-08T14:59:19.525Z,9.73
2023-04-08T15:01:47.059Z,9.25
2023-04-08T15:04:14.899Z,9.35
2023-04-08T15:06:42.812Z,8.65
2023-04-08T15:09:10.378Z,8.20
2023-04-08T15:11:37.831Z,8.18
2023-04-08T15:14:05.576Z,8.70
2023-04-08T15:16:33.187Z,8.25
2023-04-08T15:19:00.833Z,8.70
2023-04-08T15:21:32.416Z,8.60
2023-04-08T15:23:59.980Z,8.60
2023-04-08T15:26:27.883Z,9.35
2023-04-08T15:28:57.560Z,8.73
2023-04-08T15:31:25.325Z,8.05
2023-04-08T15:33:53.426Z,8.70
2023-04-08T15:36:21.370Z,8.52
2023-04-08T15:38:49.009Z,9.75
2023-04-08T15:41:21.413Z,8.68
2023-04-08T15:43:49.095Z,8.70
2023-04-08T15:46:23.127Z,10.63
2023-04-08T15:48:51.295Z,10.68
2023-04-08T15:51:20.335Z,11.82
2023-04-08T15:53:48.006Z,10.20
2023-04-08T15:56:16.676Z,10.60
2023-04-08T15:58:45.792Z,11.23
2023-04-08T16:01:13.419Z,10.98
2023-04-08T16:03:43.604Z,10.55
2023-04-08T16:06:11.262Z,10.68
2023-04-08T16:08:39.379Z,10.35
2023-04-08T16:11:08.113Z,10.85
2023-04-08T16:13:35.786Z,11.05
2023-04-08T16:16:03.742Z,10.80
2023-04-08T16:18:31.500Z,11.70
2023-04-08T16:20:58.908Z,11.43
2023-04-08T16:23:26.560Z,11.43
2023-04-08T16:25:54.000Z,10.90
2023-04-08T16:28:22.090Z,10.43
2023-04-08T16:30:49.656Z,9.57
2023-04-08T16:33:17.211Z,10.52
2023-04-08T16:35:44.876Z,10.77
2023-04-08T16:38:12.230Z,11.18
2023-04-08T16:40:39.748Z,11.32
2023-04-08T16:43:07.210Z,10.52
2023-04-08T16:45:34.704Z,9.95
2023-04-08T16:48:02.674Z,10.15
2023-04-08T16:50:30.142Z,10.55
2023-04-08T16:52:59.994Z,10.10
2023-04-08T16:55:27.554Z,11.02
2023-04-08T16:57:55.067Z,10.23
2023-04-08T17:00:22.607Z,11.32
2023-04-08T17:02:50.126Z,11.27
2023-04-08T17:05:18.056Z,11.73
2023-04-08T17:07:45.495Z,11.85
2023-04-08T17:10:13.166Z,12.05
2023-04-08T17:12:41.668Z,11.00
2023-04-08T17:15:10.175Z,12.02
2023-04-08T17:17:37.764Z,11.38
2023-04-08T17:20:05.989Z,10.32
2023-04-08T17:22:33.587Z,10.88
2023-04-08T17:25:01.294Z,11.05
2023-04-08T17:27:28.917Z,11.48
2023-04-08T17:29:57.877Z,11.48
2023-04-08T17:32:25.386Z,11.05
2023-04-08T17:34:53.327Z,11.90
2023-04-08T17:37:21.490Z,10.65
2023-04-08T17:39:49.248Z,10.90
2023-04-08T17:42:17.017Z,11.93
2023-04-08T17:44:44.957Z,11.73
2023-04-08T17:47:12.360Z,11.07
2023-04-08T17:49:39.766Z,12.32
2023-04-08T17:52:07.444Z,11.57
2023-04-08T17:54:35.072Z,9.95
2023-04-08T17:57:03.237Z,11.10
2023-04-08T17:59:34.034Z,11.40
2023-04-08T18:02:01.432Z,11.25
2023-04-08T18:04:30.035Z,11.18
2023-04-08T18:06:57.584Z,10.85
2023-04-08T18:09:25.024Z,10.93
2023-04-08T18:11:52.489Z,11.05
2023-04-08T18:14:20.137Z,11.88
2023-04-08T18:16:47.658Z,12.18
2023-04-08T18:19:15.359Z,12.02
2023-04-08T18:21:43.618Z,12.90
2023-04-08T18:24:11.130Z,13.27
2023-04-08T18:26:38.553Z,11.90
2023-04-08T18:29:06.815Z,12.38
2023-04-08T18:31:34.239Z,12.20
2023-04-08T18:34:02.321Z,11.70
2023-04-08T18:36:29.816Z,11.70
2023-04-08T18:38:57.659Z,13.05
2023-04-08T18:41:26.412Z,11.52
2023-04-08T18:43:53.958Z,12.00
2023-04-08T18:46:21.623Z,16.45
2023-04-08T18:48:49.366Z,14.30
2023-04-08T18:51:16.957Z,14.57
2023-04-08T18:53:44.436Z,12.82
2023-04-08T18:56:19.232Z,14.02
2023-04-08T18:58:47.170Z,14.23
2023-04-08T19:01:14.948Z,12.35
2023-04-08T19:03:46.173Z,14.02
2023-04-08T19:06:14.084Z,13.40
2023-04-08T19:08:41.585Z,12.60
2023-04-08T19:11:09.066Z,14.38
2023-04-08T19:13:38.916Z,13.50
2023-04-08T19:16:07.176Z,13.20
2023-04-08T19:18:34.668Z,12.02
2023-04-08T19:21:02.384Z,13.25
2023-04-08T19:23:29.728Z,13.13
2023-04-08T19:25:57.330Z,12.13
2023-04-08T19:28:24.850Z,12.73
2023-04-08T19:30:52.494Z,13.73
2023-04-08T19:33:21.067Z,13.52
2023-04-08T19:35:49.427Z,14.02
2023-04-08T19:38:16.924Z,13.52
2023-04-08T19:40:44.504Z,13.82
2023-04-08T19:43:11.955Z,13.73
2023-04-08T19:45:39.543Z,13.83
2023-04-08T19:48:07.785Z,13.87
2023-04-08T19:50:39.220Z,14.27
2023-04-08T19:53:09.176Z,13.70
2023-04-08T19:55:37.807Z,13.67
2023-04-08T19:58:05.704Z,14.40
2023-04-08T20:00:33.229Z,14.10
2023-04-08T20:03:01.220Z,14.50
2023-04-08T20:05:28.872Z,13.47
2023-04-08T20:07:56.351Z,13.83
2023-04-08T20:10:23.857Z,14.43
2023-04-08T20:12:53.351Z,13.87
2023-04-08T20:15:25.387Z,13.63
2023-04-08T20:17:55.559Z,15.13
2023-04-08T20:20:24.172Z,14.30
2023-04-08T20:22:51.760Z,16.90
2023-04-08T20:25:19.363Z,14.83
2023-04-08T20:27:46.809Z,15.30
2023-04-08T20:30:14.317Z,16.00
2023-04-08T20:32:41.765Z,15.87
2023-04-08T20:35:09.499Z,15.80
2023-04-08T20:37:37.008Z,15.77
2023-04-08T20:40:05.187Z,16.43
2023-04-08T20:42:32.765Z,15.20
2023-04-08T20:45:00.741Z,15.77
2023-04-08T20:47:28.912Z,16.57
2023-04-08T20:49:56.473Z,17.83
2023-04-08T20:52:23.988Z,17.83
2023-04-08T20:54:51.522Z,17.30
2023-04-08T20:57:19.040Z,18.40
2023-04-08T20:59:46.422Z,17.37
2023-04-08T21:02:14.291Z,15.93
2023-04-08T21:04:41.901Z,17.47
2023-04-08T21:07:09.454Z,17.00
2023-04-08T21:09:36.955Z,17.73
2023-04-08T21:12:04.699Z,16.63
2023-04-08T21:14:32.306Z,18.90
2023-04-08T21:17:00.431Z,17.43
2023-04-08T21:19:28.178Z,17.40
2023-04-08T21:21:55.737Z,19.40
2023-04-08T21:24:23.134Z,18.40
2023-04-08T21:26:50.728Z,18.30
2023-04-08T21:29:18.403Z,19.27
2023-04-08T21:31:46.136Z,20.83
2023-04-08T21:34:13.716Z,19.77
2023-04-08T21:36:43.697Z,18.93
2023-04-08T21:39:11.344Z,21.20
2023-04-08T21:41:38.841Z,20.97
2023-04-08T21:44:06.315Z,32.13
2023-04-08T21:46:33.796Z,48.90
2023-04-08T21:49:01.208Z,32.07
2023-04-08T21:51:28.788Z,20.60
2023-04-08T21:53:59.133Z,27.80
2023-04-08T21:56:27.742Z,24.37
2023-04-08T21:58:55.432Z,23.43
2023-04-08T22:01:22.992Z,23.77
2023-04-08T22:03:52.375Z,20.27
2023-04-08T22:06:31.106Z,21.50
2023-04-08T22:08:59.452Z,21.57
2023-04-08T22:11:29.507Z,21.63
2023-04-08T22:13:57.016Z,20.17
2023-04-08T22:16:24.533Z,21.73
2023-04-08T22:18:52.074Z,20.07
2023-04-08T22:21:19.686Z,20.17
2023-04-08T22:23:47.173Z,24.70
2023-04-08T22:26:16.179Z,23.30
2023-04-08T22:28:43.787Z,21.80
2023-04-08T22:31:12.248Z,21.67
2023-04-08T22:33:39.922Z,17.77
2023-04-08T22:36:07.668Z,19.47
2023-04-08T22:38:35.646Z,20.13
2023-04-08T22:41:03.274Z,21.07
2023-04-08T22:43:30.825Z,19.70
2023-04-08T22:45:58.363Z,21.77
2023-04-08T22:48:25.972Z,21.03
2023-04-08T22:50:53.519Z,20.97
2023-04-08T22:53:21.237Z,20.80
2023-04-08T22:55:48.659Z,21.77
2023-04-08T22:58:16.487Z,22.97
2023-04-08T23:00:43.958Z,23.00
2023-04-08T23:03:11.744Z,26.40
2023-04-08T23:05:39.334Z,24.27
2023-04-08T23:08:06.905Z,21.80
2023-04-08T23:10:34.305Z,22.43
2023-04-08T23:13:02.048Z,21.97
2023-04-08T23:15:29.791Z,19.70
2023-04-08T23:17:57.662Z,20.77
2023-04-08T23:20:25.321Z,23.10
2023-04-08T23:22:52.884Z,21.20
2023-04-08T23:25:20.414Z,21.33
2023-04-08T23:27:47.889Z,21.20
2023-04-08T23:30:15.605Z,22.60
2023-04-08T23:32:43.101Z,21.90
2023-04-08T23:35:10.750Z,21.60
2023-04-08T23:37:38.293Z,22.70
2023-04-08T23:40:07.045Z,21.93
2023-04-08T23:42:34.585Z,21.13
2023-04-08T23:45:02.107Z,21.10
2023-04-08T23:47:31.258Z,22.07
2023-04-08T23:49:58.838Z,20.90
2023-04-08T23:52:26.360Z,21.43
2023-04-08T23:54:53.898Z,21.07
2023-04-08T23:57:21.510Z,21.00
2023-04-08T23:59:49.228Z,21.33
